createdAt,value
2022-09-25T00:02:53.868Z,100578.36
2022-09-25T00:07:59.746Z,100582.83
2022-09-25T00:13:05.757Z,100581.12
2022-09-25T00:18:11.809Z,100577.51
2022-09-25T00:23:17.840Z,100577.16
2022-09-25T00:28:23.709Z,100577.17
2022-09-25T00:33:29.617Z,100573.73
2022-09-25T00:38:36.913Z,100573.39
2022-09-25T00:43:45.647Z,100572.36
2022-09-25T00:48:55.235Z,100565.64
2022-09-25T00:54:04.640Z,100560.11
2022-09-25T00:59:14.205Z,100565.29
2022-09-25T01:04:22.654Z,100558.06
2022-09-25T01:09:28.905Z,100559.27
2022-09-25T01:14:35.428Z,100560.45
2022-09-25T01:19:54.878Z,100560.29
2022-09-25T01:25:12.233Z,100559.92
2022-09-25T01:30:20.242Z,100558.71
2022-09-25T01:35:43.051Z,100558.71
2022-09-25T01:40:53.573Z,100556.65
2022-09-25T01:46:03.571Z,100558.19
2022-09-25T01:51:16.178Z,100551.81
2022-09-25T01:56:31.561Z,100547.52
2022-09-25T02:01:41.200Z,100545.44
2022-09-25T02:06:50.362Z,100544.40
2022-09-25T02:12:00.167Z,100540.95
2022-09-25T02:17:10.746Z,100541.27
2022-09-25T02:22:20.054Z,100538.83
2022-09-25T02:27:29.396Z,100530.23
2022-09-25T02:32:35.276Z,100520.92
2022-09-25T02:37:41.286Z,100514.38
2022-09-25T02:42:53.139Z,100514.02
2022-09-25T02:48:08.631Z,100513.30
2022-09-25T02:53:19.705Z,100509.18
2022-09-25T02:58:31.479Z,100506.25
2022-09-25T03:03:40.099Z,100502.09
2022-09-25T03:08:52.098Z,100503.95
2022-09-25T03:14:00.764Z,100504.63
2022-09-25T03:19:07.086Z,100505.30
2022-09-25T03:24:13.015Z,100507.17
2022-09-25T03:29:19.237Z,100503.55
2022-09-25T03:34:25.113Z,100496.89
2022-09-25T03:39:30.910Z,100497.63
2022-09-25T03:44:36.919Z,100499.34
2022-09-25T03:49:42.554Z,100500.18
2022-09-25T03:54:48.588Z,100499.46
2022-09-25T03:59:54.505Z,100499.27
2022-09-25T04:05:00.186Z,100500.44
2022-09-25T04:10:06.879Z,100506.80
2022-09-25T04:15:13.275Z,100504.91
2022-09-25T04:20:19.614Z,100504.91
2022-09-25T04:25:25.944Z,100507.50
2022-09-25T04:30:32.337Z,100507.52
2022-09-25T04:35:38.263Z,100508.22
2022-09-25T04:40:46.042Z,100502.59
2022-09-25T04:45:52.112Z,100501.80
2022-09-25T04:50:58.292Z,100497.73
2022-09-25T04:56:12.187Z,100496.05
2022-09-25T05:01:21.491Z,100497.62
2022-09-25T05:06:27.573Z,100496.24
2022-09-25T05:11:33.608Z,100488.65
2022-09-25T05:16:39.421Z,100487.93
2022-09-25T05:21:45.362Z,100488.91
2022-09-25T05:26:51.501Z,100489.52
2022-09-25T05:31:57.249Z,100487.29
2022-09-25T05:37:03.490Z,100490.90
2022-09-25T05:42:09.289Z,100499.09
2022-09-25T05:47:15.473Z,100508.29
2022-09-25T05:52:21.566Z,100507.17
2022-09-25T05:57:28.425Z,100502.11
2022-09-25T06:02:34.190Z,100503.77
2022-09-25T06:07:40.063Z,100513.13
2022-09-25T06:12:45.922Z,100514.66
2022-09-25T06:17:51.656Z,100519.48
2022-09-25T06:22:58.772Z,100511.41
2022-09-25T06:28:06.280Z,100507.60
2022-09-25T06:33:14.299Z,100507.20
2022-09-25T06:38:20.218Z,100499.98
2022-09-25T06:43:25.999Z,100497.71
2022-09-25T06:48:32.257Z,100496.05
2022-09-25T06:53:38.273Z,100493.98
2022-09-25T06:58:44.146Z,100491.85
2022-09-25T07:03:50.093Z,100489.23
2022-09-25T07:08:57.193Z,100480.40
2022-09-25T07:14:03.541Z,100473.17
2022-09-25T07:19:41.061Z,100465.90
2022-09-25T07:24:48.357Z,100464.97
2022-09-25T07:29:55.160Z,100466.54
2022-09-25T07:35:01.589Z,100471.59
2022-09-25T07:40:12.745Z,100471.98
2022-09-25T07:45:18.937Z,100471.83
2022-09-25T07:50:25.073Z,100467.39
2022-09-25T07:55:30.942Z,100467.98
2022-09-25T08:00:36.772Z,100466.10
2022-09-25T08:05:43.210Z,100464.25
2022-09-25T08:11:02.170Z,100457.63
2022-09-25T08:16:42.026Z,100454.25
2022-09-25T08:21:55.937Z,100453.33
2022-09-25T08:27:01.707Z,100456.73
2022-09-25T08:32:49.204Z,100452.78
2022-09-25T08:39:20.633Z,100452.48
2022-09-25T08:51:21.443Z,100438.02
2022-09-25T08:56:29.468Z,100436.66
2022-09-25T09:01:46.309Z,100432.52
2022-09-25T09:07:25.022Z,100428.15
2022-09-25T09:12:34.292Z,100422.30
2022-09-25T09:17:43.506Z,100415.68
2022-09-25T09:22:53.218Z,100406.93
2022-09-25T09:28:30.383Z,100401.37
2022-09-25T09:35:04.186Z,100399.88
2022-09-25T09:40:47.319Z,100396.37
2022-09-25T09:45:59.175Z,100390.27
2022-09-25T09:51:11.239Z,100381.73
2022-09-25T09:56:22.952Z,100375.70
2022-09-25T10:01:42.002Z,100374.96
2022-09-25T10:06:51.225Z,100363.54
2022-09-25T10:12:01.980Z,100353.62
2022-09-25T10:17:12.656Z,100349.66
2022-09-25T10:22:21.646Z,100342.98
2022-09-25T10:27:35.870Z,100338.97
2022-09-25T10:32:57.211Z,100336.50
2022-09-25T10:38:05.038Z,100330.20
2022-09-25T10:43:24.205Z,100328.04
2022-09-25T10:48:52.116Z,100323.65
2022-09-25T10:54:13.537Z,100323.43
2022-09-25T10:59:23.588Z,100317.35
2022-09-25T11:04:32.216Z,100313.23
2022-09-25T11:09:44.959Z,100306.83
2022-09-25T11:14:58.265Z,100298.55
2022-09-25T11:20:27.665Z,100284.73
2022-09-25T11:25:42.064Z,100292.80
2022-09-25T11:30:54.270Z,100289.15
2022-09-25T11:36:06.125Z,100274.71
2022-09-25T11:41:23.402Z,100274.97
2022-09-25T11:46:39.369Z,100273.40
2022-09-25T11:52:28.264Z,100271.90
2022-09-25T11:57:45.935Z,100271.79
2022-09-25T12:03:07.412Z,100271.02
2022-09-25T12:08:27.072Z,100263.72
2022-09-25T12:13:44.715Z,100256.38
2022-09-25T12:19:13.054Z,100253.88
2022-09-25T12:24:35.463Z,100252.09
2022-09-25T12:29:58.007Z,100244.27
2022-09-25T12:35:28.376Z,100241.04
2022-09-25T12:40:38.903Z,100233.70
2022-09-25T12:45:49.376Z,100227.38
2022-09-25T12:51:05.394Z,100221.77
2022-09-25T12:56:16.334Z,100219.36
2022-09-25T13:01:28.118Z,100220.33
2022-09-25T13:06:47.944Z,100214.80
2022-09-25T13:12:00.484Z,100209.61
2022-09-25T13:17:10.545Z,100199.65
2022-09-25T13:22:21.811Z,100194.17
2022-09-25T13:27:35.361Z,100196.23
2022-09-25T13:32:50.867Z,100194.54
2022-09-25T13:38:09.675Z,100193.10
2022-09-25T13:43:26.833Z,100191.73
2022-09-25T13:48:37.755Z,100186.80
2022-09-25T13:53:52.001Z,100184.31
2022-09-25T13:59:20.390Z,100175.77
2022-09-25T14:04:39.183Z,100170.86
2022-09-25T14:09:49.974Z,100168.77
2022-09-25T14:15:01.326Z,100165.27
2022-09-25T14:20:27.903Z,100165.27
2022-09-25T14:25:40.612Z,100173.26
2022-09-25T14:31:08.638Z,100170.41
2022-09-25T14:36:27.874Z,100159.29
2022-09-25T14:41:52.949Z,100152.35
2022-09-25T14:46:59.292Z,100144.78
2022-09-25T14:52:09.507Z,100139.38
2022-09-25T14:57:25.572Z,100139.33
2022-09-25T15:02:36.929Z,100136.56
2022-09-25T15:07:46.363Z,100127.31
2022-09-25T15:12:53.258Z,100126.80
2022-09-25T15:18:02.467Z,100121.93
2022-09-25T15:23:15.314Z,100123.91
2022-09-25T15:28:25.270Z,100122.77
2022-09-25T15:33:34.072Z,100118.95
2022-09-25T15:38:40.918Z,100113.80
2022-09-25T15:43:47.023Z,100108.41
2022-09-25T15:48:56.227Z,100105.91
2022-09-25T15:54:04.141Z,100110.98
2022-09-25T15:59:20.079Z,100107.96
2022-09-25T16:04:39.215Z,100111.62
2022-09-25T16:09:48.400Z,100110.68
2022-09-25T16:14:56.238Z,100106.55
2022-09-25T16:20:05.765Z,100104.18
2022-09-25T16:25:22.119Z,100099.13
2022-09-25T16:30:28.064Z,100095.92
2022-09-25T16:36:05.254Z,100093.16
2022-09-25T16:41:07.539Z,100085.27
2022-09-25T16:46:18.486Z,100085.04
2022-09-25T16:51:30.191Z,100084.73
2022-09-25T16:56:36.222Z,100085.13
2022-09-25T17:01:42.204Z,100084.69
2022-09-25T17:06:48.620Z,100086.58
2022-09-25T17:11:59.320Z,100080.77
2022-09-25T17:17:05.087Z,100084.14
2022-09-25T17:22:11.732Z,100087.50
2022-09-25T17:27:18.146Z,100084.88
2022-09-25T17:32:24.045Z,100084.36
2022-09-25T17:37:29.940Z,100086.98
2022-09-25T17:42:36.025Z,100088.28
2022-09-25T17:47:42.245Z,100088.73
2022-09-25T17:52:48.262Z,100085.95
2022-09-25T17:57:54.097Z,100075.21
2022-09-25T18:02:59.882Z,100071.16
2022-09-25T18:08:06.178Z,100065.23
2022-09-25T18:13:15.355Z,100068.80
2022-09-25T18:18:21.346Z,100064.16
2022-09-25T18:23:28.097Z,100060.82
2022-09-25T18:28:34.260Z,100060.98
2022-09-25T18:33:42.270Z,100060.35
2022-09-25T18:38:51.475Z,100060.12
2022-09-25T18:43:58.051Z,100060.48
2022-09-25T18:49:04.004Z,100050.90
2022-09-25T18:54:14.437Z,100046.85
2022-09-25T18:59:20.572Z,100044.86
2022-09-25T19:04:26.791Z,100048.48
2022-09-25T19:09:32.676Z,100048.38
2022-09-25T19:14:38.669Z,100049.09
2022-09-25T19:19:45.044Z,100050.72
2022-09-25T19:33:34.528Z,100042.86
2022-09-25T19:38:40.625Z,100039.33
2022-09-25T19:43:46.693Z,100033.77
2022-09-25T19:48:52.565Z,100025.39
2022-09-25T19:53:58.365Z,100024.94
2022-09-25T19:59:05.655Z,100021.69
2022-09-25T20:04:18.011Z,100021.19
2022-09-25T20:09:26.942Z,100021.60
2022-09-25T20:14:32.798Z,100023.68
2022-09-25T20:19:38.751Z,100020.45
2022-09-25T20:24:44.579Z,100019.52
2022-09-25T20:29:50.472Z,100023.64
2022-09-25T20:34:56.329Z,100021.54
2022-09-25T20:40:02.581Z,100020.10
2022-09-25T20:45:10.144Z,100018.42
2022-09-25T20:50:16.608Z,100014.30
2022-09-25T20:55:22.656Z,100019.58
2022-09-25T21:00:29.273Z,100013.88
2022-09-25T21:05:39.566Z,100013.24
2022-09-25T21:10:45.811Z,100011.94
2022-09-25T21:15:52.001Z,100011.76
2022-09-25T21:21:01.886Z,100011.50
2022-09-25T21:26:13.566Z,100010.38
2022-09-25T21:31:22.299Z,100015.48
2022-09-25T21:36:29.524Z,100014.15
2022-09-25T21:41:35.781Z,100010.88
2022-09-25T21:46:41.788Z,100010.05
2022-09-25T21:51:48.419Z,100002.65
2022-09-25T21:56:54.447Z,99996.72
2022-09-25T22:02:00.256Z,99989.69
2022-09-25T22:07:06.661Z,99982.28
2022-09-25T22:12:12.367Z,99976.18
2022-09-25T22:17:18.486Z,99969.59
2022-09-25T22:22:24.402Z,99970.19
2022-09-25T22:27:30.286Z,99965.55
2022-09-25T22:32:36.630Z,99960.53
2022-09-25T22:37:42.495Z,99962.05
2022-09-25T22:42:48.483Z,99963.08
2022-09-25T22:47:54.431Z,99963.27
2022-09-25T22:53:00.172Z,99952.38
2022-09-25T22:58:06.075Z,99947.77
2022-09-25T23:03:12.227Z,99941.86
2022-09-25T23:08:18.171Z,99936.65
2022-09-25T23:13:24.212Z,99927.15
2022-09-25T23:18:33.570Z,99918.25
2022-09-25T23:23:39.607Z,99913.34
2022-09-25T23:28:45.316Z,99914.17
2022-09-25T23:33:51.408Z,99913.20
2022-09-25T23:38:59.183Z,99913.23
2022-09-25T23:44:10.372Z,99913.09
2022-09-25T23:49:16.477Z,99917.30
2022-09-25T23:54:22.997Z,99912.27
2022-09-25T23:59:29.158Z,99912.77
